Time;durP1;ratioP1;P1;durP2;ratioP2;P2;SDS_P1;SDS_P2;PMS_P1;PMS_P2;Temp;Humidity;BMP_temperature;BMP_pressure;BME280_temperature;BME280_humidity;BME280_pressure;Samples;Min_cycle;Max_cycle;Signal;HPM_P1;HPM_P2
2024/01/31 00:02:22;;;;;;;45.65;23.30;;;;;;;-1.78;100.00;102068.50;6267376;28;20103;-68
2024/01/31 00:05:23;;;;;;;47.88;23.75;;;;;;;-1.78;100.00;102065.94;6269981;28;20048;-68
2024/01/31 00:08:24;;;;;;;47.72;25.83;;;;;;;-1.75;100.00;102063.47;6275155;28;20060;-68
2024/01/31 00:11:33;;;;;;;43.88;23.55;;;;;;;-1.78;100.00;102065.94;6256865;28;20136;-68
2024/01/31 00:14:35;;;;;;;42.45;23.90;;;;;;;-1.83;100.00;102057.31;6267193;28;20055;-74
2024/01/31 00:17:36;;;;;;;54.92;25.77;;;;;;;-1.84;100.00;102060.69;6267905;28;20056;-74
2024/01/31 00:20:39;;;;;;;46.72;23.17;;;;;;;-1.88;100.00;102054.63;6271103;28;20174;-74
2024/01/31 00:23:40;;;;;;;42.95;24.05;;;;;;;-1.89;100.00;102059.75;6268874;28;20040;-74
2024/01/31 00:26:41;;;;;;;49.25;24.23;;;;;;;-1.91;100.00;102059.72;6266764;28;20056;-69
2024/01/31 00:29:42;;;;;;;53.53;21.92;;;;;;;-1.92;100.00;102065.63;6268628;28;20110;-68
2024/01/31 00:32:45;;;;;;;37.60;21.23;;;;;;;-1.91;100.00;102069.94;6280124;28;20056;-67
2024/01/31 00:35:48;;;;;;;43.63;23.40;;;;;;;-1.93;100.00;102061.38;6270432;28;20045;-67
2024/01/31 00:38:52;;;;;;;47.08;23.38;;;;;;;-2.00;100.00;102062.03;6265201;28;20135;-68
2024/01/31 00:41:54;;;;;;;57.88;23.67;;;;;;;-2.03;100.00;102059.44;6269752;28;20076;-74
2024/01/31 00:44:55;;;;;;;49.58;24.27;;;;;;;-2.00;100.00;102063.75;6266364;28;20076;-74
2024/01/31 00:47:55;;;;;;;45.85;23.58;;;;;;;-2.02;100.00;102048.34;6254742;28;20045;-74
2024/01/31 00:50:58;;;;;;;50.38;24.05;;;;;;;-2.03;100.00;102046.63;6269863;28;20139;-68
2024/01/31 00:54:00;;;;;;;47.03;25.27;;;;;;;-2.05;100.00;102051.72;6267889;28;20473;-68
2024/01/31 00:57:01;;;;;;;43.33;24.15;;;;;;;-2.06;100.00;102046.56;6268149;28;20053;-68
2024/01/31 01:00:04;;;;;;;54.25;25.20;;;;;;;-2.11;100.00;102043.91;6282753;28;20094;-67
2024/01/31 01:03:05;;;;;;;43.72;22.67;;;;;;;-2.09;100.00;102034.56;6268245;28;20397;-68
2024/01/31 01:06:06;;;;;;;44.33;22.85;;;;;;;-2.09;100.00;102034.56;6276244;28;20053;-73
2024/01/31 01:09:07;;;;;;;45.75;24.00;;;;;;;-2.11;100.00;102032.81;6266100;28;20055;-74
2024/01/31 01:12:08;;;;;;;42.50;21.33;;;;;;;-2.16;100.00;102025.03;6268806;28;20450;-68
2024/01/31 01:15:10;;;;;;;53.92;24.23;;;;;;;-2.17;100.00;102025.00;6269942;28;20053;-74
2024/01/31 01:18:11;;;;;;;38.20;21.77;;;;;;;-2.24;100.00;102031.66;6266374;28;20107;-74
2024/01/31 01:21:12;;;;;;;35.10;19.73;;;;;;;-2.28;100.00;102022.19;6268999;28;20049;-67
2024/01/31 01:24:12;;;;;;;40.45;20.48;;;;;;;-2.25;100.00;102023.09;6275630;28;20049;-67
2024/01/31 01:27:13;;;;;;;36.75;19.60;;;;;;;-2.22;100.00;102017.22;6292125;28;20059;-67
2024/01/31 01:30:14;;;;;;;35.13;20.15;;;;;;;-2.28;100.00;102017.94;6289876;28;20056;-68
2024/01/31 01:33:15;;;;;;;42.78;21.20;;;;;;;-2.35;100.00;102015.19;6264769;28;20069;-68
2024/01/31 01:36:16;;;;;;;46.05;22.05;;;;;;;-2.30;100.00;102019.59;6267712;28;20515;-68
2024/01/31 01:39:16;;;;;;;42.47;22.27;;;;;;;-2.33;100.00;102018.66;6267022;28;20059;-69
2024/01/31 01:42:17;;;;;;;38.50;20.52;;;;;;;-2.33;100.00;102013.53;6267487;28;20045;-74
2024/01/31 01:45:18;;;;;;;41.85;20.60;;;;;;;-2.31;100.00;102015.28;6266875;28;20049;-73
2024/01/31 01:48:19;;;;;;;42.70;20.73;;;;;;;-2.37;100.00;102007.47;6263881;28;20045;-74
2024/01/31 01:51:21;;;;;;;43.80;21.10;;;;;;;-2.36;100.00;102018.59;6269878;28;20053;-74
2024/01/31 01:54:22;;;;;;;38.70;20.45;;;;;;;-2.40;100.00;102014.22;6270017;28;20124;-74
2024/01/31 01:57:24;;;;;;;37.88;19.40;;;;;;;-2.36;100.00;102001.56;6283118;28;20044;-74
2024/01/31 02:00:25;;;;;;;39.40;21.45;;;;;;;-2.39;100.00;101998.06;6277539;28;20091;-74
2024/01/31 02:03:29;;;;;;;41.20;21.17;;;;;;;-2.37;100.00;101992.13;6284143;28;20044;-74
2024/01/31 02:06:32;;;;;;;37.17;20.13;;;;;;;-2.45;100.00;101988.53;6260512;28;20053;-74
2024/01/31 02:09:34;;;;;;;42.70;20.92;;;;;;;-2.42;100.00;101992.88;6265810;28;20422;-73
2024/01/31 02:12:35;;;;;;;42.20;22.30;;;;;;;-2.44;100.00;101996.25;6277198;28;20048;-73
2024/01/31 02:15:36;;;;;;;40.95;21.30;;;;;;;-2.44;100.00;101987.72;6270429;28;20075;-74
2024/01/31 02:18:37;;;;;;;39.83;20.20;;;;;;;-2.45;100.00;101981.75;6269369;28;20052;-74
2024/01/31 02:21:41;;;;;;;49.65;19.77;;;;;;;-2.46;100.00;101991.94;6270425;28;20427;-68
2024/01/31 02:24:45;;;;;;;32.60;17.95;;;;;;;-2.50;100.00;101996.09;6268979;28;20087;-69
2024/01/31 02:27:45;;;;;;;36.50;20.20;;;;;;;-2.53;100.00;101982.38;6273026;28;20049;-73
2024/01/31 02:30:46;;;;;;;38.95;18.77;;;;;;;-2.53;100.00;101975.59;6285504;28;20049;-74
2024/01/31 02:33:47;;;;;;;43.25;20.02;;;;;;;-2.57;100.00;101978.03;6272799;28;20052;-74
2024/01/31 02:36:48;;;;;;;38.15;17.95;;;;;;;-2.55;100.00;101976.38;6271771;28;20044;-74
2024/01/31 02:39:49;;;;;;;40.03;20.30;;;;;;;-2.58;100.00;101974.59;6272625;28;20053;-74
2024/01/31 02:42:50;;;;;;;32.65;17.48;;;;;;;-2.54;100.00;101967.88;6274649;28;20041;-74
2024/01/31 02:45:53;;;;;;;40.85;21.48;;;;;;;-2.56;100.00;101974.66;6271588;28;20496;-67
2024/01/31 02:48:53;;;;;;;36.60;19.38;;;;;;;-2.55;100.00;101978.94;6266423;28;20122;-69
2024/01/31 02:51:54;;;;;;;39.88;18.42;;;;;;;-2.58;100.00;101974.59;6273110;28;20044;-74
2024/01/31 02:54:55;;;;;;;39.92;22.10;;;;;;;-2.63;100.00;101976.22;6272009;28;20063;-74
2024/01/31 02:57:56;;;;;;;38.70;20.00;;;;;;;-2.58;100.00;101982.28;6280088;28;20480;-74
2024/01/31 03:00:58;;;;;;;36.13;19.45;;;;;;;-2.60;100.00;101968.59;6275144;28;20045;-68
2024/01/31 03:04:01;;;;;;;35.72;20.23;;;;;;;-2.68;100.00;101972.66;6278481;28;20056;-68
2024/01/31 03:07:04;;;;;;;36.65;18.83;;;;;;;-2.65;100.00;101965.94;6293706;28;20052;-68
2024/01/31 03:10:07;;;;;;;52.22;21.42;;;;;;;-2.68;100.00;101973.56;6293413;28;20065;-67
2024/01/31 03:13:07;;;;;;;41.17;21.38;;;;;;;-2.70;100.00;101970.09;6260516;28;20045;-68
2024/01/31 03:16:08;;;;;;;42.05;20.08;;;;;;;-2.79;100.00;101969.84;6271106;28;20415;-68
2024/01/31 03:19:09;;;;;;;30.95;17.95;;;;;;;-2.83;100.00;101974.03;6279258;28;20060;-67
2024/01/31 03:22:10;;;;;;;32.53;15.75;;;;;;;-2.80;100.00;101972.38;6271927;28;20041;-68
2024/01/31 03:25:11;;;;;;;35.78;17.00;;;;;;;-2.79;100.00;101969.84;6270662;28;20508;-74
2024/01/31 03:28:14;;;;;;;35.05;17.92;;;;;;;-2.78;100.00;101969.03;6272356;28;20044;-74
2024/01/31 03:31:15;;;;;;;36.70;16.65;;;;;;;-2.81;100.00;101958.72;6280857;28;20105;-68
2024/01/31 03:34:16;;;;;;;34.28;16.77;;;;;;;-2.76;100.00;101972.50;6280760;28;20044;-67
2024/01/31 03:37:17;;;;;;;32.15;17.80;;;;;;;-2.77;100.00;101963.09;6267511;28;20052;-68
2024/01/31 03:40:18;;;;;;;31.25;16.48;;;;;;;-2.83;100.00;101960.38;6268385;28;20187;-68
2024/01/31 03:43:19;;;;;;;30.77;17.48;;;;;;;-2.81;100.00;101968.09;6296362;28;20051;-68
2024/01/31 03:46:21;;;;;;;28.95;15.38;;;;;;;-2.88;100.00;101970.50;6290035;28;21357;-74
2024/01/31 03:49:22;;;;;;;35.67;16.00;;;;;;;-2.90;100.00;101966.19;6267167;28;20059;-68
2024/01/31 03:52:24;;;;;;;23.42;14.73;;;;;;;-2.87;100.00;101966.25;6266519;28;20312;-68
2024/01/31 03:55:25;;;;;;;26.30;14.63;;;;;;;-2.85;100.00;101965.44;6270950;28;20068;-74
2024/01/31 03:58:26;;;;;;;25.13;12.98;;;;;;;-2.86;100.00;101961.19;6270547;28;20613;-68
2024/01/31 04:01:26;;;;;;;25.83;14.55;;;;;;;-2.88;100.00;101960.28;6281467;28;20049;-73
2024/01/31 04:04:27;;;;;;;20.30;12.20;;;;;;;-2.93;100.00;101968.66;6270350;28;20049;-74
2024/01/31 04:07:28;;;;;;;22.00;12.95;;;;;;;-2.91;100.00;101964.44;6274514;28;20048;-69
2024/01/31 04:10:31;;;;;;;28.08;13.57;;;;;;;-2.95;100.00;101965.19;6271139;28;20131;-68
2024/01/31 04:13:32;;;;;;;23.15;14.23;;;;;;;-2.99;100.00;101964.25;6269446;28;20064;-74
2024/01/31 04:16:33;;;;;;;27.00;13.80;;;;;;;-2.96;100.00;101964.34;6269341;28;20048;-67
2024/01/31 04:19:34;;;;;;;22.45;14.02;;;;;;;-2.94;100.00;101962.69;6270837;28;20057;-73
2024/01/31 04:22:34;;;;;;;23.50;12.25;;;;;;;-2.93;100.00;101964.41;6291721;28;20048;-74
2024/01/31 04:25:35;;;;;;;30.45;12.98;;;;;;;-2.94;100.00;101960.13;6271841;28;20080;-74
2024/01/31 04:28:36;;;;;;;21.85;13.13;;;;;;;-2.99;100.00;101961.69;6279327;28;20056;-74
2024/01/31 04:31:37;;;;;;;24.35;14.20;;;;;;;-2.99;100.00;101959.13;6294088;28;20102;-74
2024/01/31 04:34:41;;;;;;;21.45;12.93;;;;;;;-2.99;100.00;101960.84;6280946;28;20095;-68
2024/01/31 04:37:42;;;;;;;27.52;12.35;;;;;;;-3.00;100.00;101964.22;6271058;28;20099;-68
2024/01/31 04:40:43;;;;;;;19.45;13.52;;;;;;;-2.98;100.00;101960.03;6267169;28;20430;-74
2024/01/31 04:43:43;;;;;;;28.85;14.57;;;;;;;-2.99;100.00;101961.69;6270107;28;20049;-74
2024/01/31 04:46:45;;;;;;;21.77;12.82;;;;;;;-3.04;100.00;101953.06;6269418;28;20495;-67
2024/01/31 04:49:46;;;;;;;35.50;14.75;;;;;;;-3.06;100.00;101958.13;6265755;28;20040;-67
2024/01/31 04:52:47;;;;;;;27.95;16.02;;;;;;;-3.18;100.00;101956.94;6268612;28;20051;-73
2024/01/31 04:55:48;;;;;;;27.70;13.35;;;;;;;-3.11;100.00;101953.72;6290373;28;20044;-74
2024/01/31 04:58:49;;;;;;;25.10;13.75;;;;;;;-3.13;100.00;101956.25;6291937;28;20106;-67
2024/01/31 05:01:54;;;;;;;36.28;16.90;;;;;;;-3.07;100.00;101951.31;6294718;28;20055;-68
2024/01/31 05:04:54;;;;;;;27.58;13.90;;;;;;;-3.07;100.00;101952.97;6288817;28;20543;-73
2024/01/31 05:07:55;;;;;;;39.10;16.27;;;;;;;-3.09;100.00;101944.41;6273084;28;20052;-73
2024/01/31 05:10:56;;;;;;;30.15;13.95;;;;;;;-3.13;100.00;101940.94;6275313;28;20064;-73
2024/01/31 05:13:57;;;;;;;29.98;14.80;;;;;;;-3.15;100.00;101945.13;6268448;28;20054;-74
2024/01/31 05:16:58;;;;;;;34.28;13.82;;;;;;;-3.19;100.00;101937.34;6270320;28;20457;-73
2024/01/31 05:19:59;;;;;;;31.52;14.82;;;;;;;-3.22;100.00;101934.72;6270517;28;20072;-73
2024/01/31 05:23:00;;;;;;;39.83;15.40;;;;;;;-3.20;100.00;101930.50;6268845;28;20479;-74
2024/01/31 05:26:06;;;;;;;26.63;14.23;;;;;;;-3.29;100.00;101932.00;6270434;28;20056;-74
2024/01/31 05:29:07;;;;;;;27.08;13.77;;;;;;;-3.27;100.00;101937.16;6270793;28;20049;-73
2024/01/31 05:32:08;;;;;;;26.20;14.65;;;;;;;-3.25;100.00;101935.50;6265057;28;20059;-73
2024/01/31 05:35:11;;;;;;;39.47;15.07;;;;;;;-3.24;100.00;101935.53;6277529;28;20519;-73
2024/01/31 05:38:12;;;;;;;24.98;14.07;;;;;;;-3.27;100.00;101935.47;6257859;28;20471;-74
2024/01/31 05:41:14;;;;;;;23.05;12.77;;;;;;;-3.33;100.00;101937.00;6258908;28;20065;-74
2024/01/31 05:44:14;;;;;;;29.15;14.27;;;;;;;-3.32;100.00;101941.25;6267909;28;20106;-74
2024/01/31 05:47:15;;;;;;;26.73;13.82;;;;;;;-3.29;100.00;101938.81;6270137;28;20368;-74
2024/01/31 05:50:16;;;;;;;20.98;11.75;;;;;;;-3.31;100.00;101945.56;6270253;28;20503;-74
2024/01/31 05:53:17;;;;;;;26.25;13.65;;;;;;;-3.40;100.00;101950.41;6270395;28;20517;-73
2024/01/31 05:56:18;;;;;;;32.30;13.48;;;;;;;-3.37;100.00;101947.94;6274854;28;20539;-73
2024/01/31 05:59:18;;;;;;;23.50;12.85;;;;;;;-3.45;100.00;101950.28;6268459;28;20052;-74
2024/01/31 06:02:19;;;;;;;26.98;15.32;;;;;;;-3.47;100.00;101951.94;6266828;28;20122;-74
2024/01/31 06:05:20;;;;;;;28.30;13.52;;;;;;;-3.49;100.00;101953.59;6273808;28;20055;-74
2024/01/31 06:08:23;;;;;;;28.17;13.50;;;;;;;-3.46;100.00;101948.53;6274320;28;20167;-73
2024/01/31 06:11:24;;;;;;;36.20;14.68;;;;;;;-3.48;100.00;101953.63;6250269;28;20053;-73
2024/01/31 06:14:25;;;;;;;30.55;15.57;;;;;;;-3.47;100.00;101955.34;6250251;28;20045;-74
2024/01/31 06:17:26;;;;;;;29.42;15.43;;;;;;;-3.45;100.00;101951.16;6269721;28;20064;-73
2024/01/31 06:20:26;;;;;;;29.20;15.77;;;;;;;-3.37;100.00;101958.16;6273275;28;20067;-73
2024/01/31 06:23:27;;;;;;;38.65;16.67;;;;;;;-3.34;100.00;101959.09;6256619;28;20419;-73
2024/01/31 06:26:29;;;;;;;30.02;17.45;;;;;;;-3.36;100.00;101955.63;6249439;28;20442;-74
2024/01/31 06:29:30;;;;;;;30.48;17.13;;;;;;;-3.30;100.00;101965.16;6270278;28;20095;-74
2024/01/31 06:32:37;;;;;;;37.42;18.08;;;;;;;-3.21;100.00;101967.06;6274035;28;20076;-74
2024/01/31 06:35:47;;;;;;;31.10;17.27;;;;;;;-3.22;100.00;101967.91;6272955;28;20585;-74
2024/01/31 06:38:50;;;;;;;42.65;18.67;;;;;;;-3.16;100.00;101971.47;6272820;28;20105;-73
2024/01/31 06:41:51;;;;;;;30.33;18.60;;;;;;;-3.12;100.00;101968.19;6273088;28;20056;-73
2024/01/31 06:44:52;;;;;;;30.17;15.68;;;;;;;-3.02;100.00;101971.84;6272765;28;20059;-73
2024/01/31 06:47:53;;;;;;;32.13;18.77;;;;;;;-2.96;100.00;101966.88;6272978;28;20049;-73
2024/01/31 06:50:54;;;;;;;45.25;20.48;;;;;;;-2.91;100.00;101961.88;6273957;28;20055;-73
2024/01/31 06:53:55;;;;;;;30.60;18.85;;;;;;;-2.84;100.00;101969.75;6272591;28;20045;-74
2024/01/31 06:56:56;;;;;;;49.90;21.88;;;;;;;-2.75;100.00;101976.75;6272470;28;20511;-73
2024/01/31 06:59:56;;;;;;;31.77;20.42;;;;;;;-2.69;100.00;101973.50;6273592;28;20048;-74
2024/01/31 07:02:57;;;;;;;40.35;20.23;;;;;;;-2.56;100.00;101979.75;6273577;28;20049;-74
2024/01/31 07:05:58;;;;;;;28.85;17.55;;;;;;;-2.52;100.00;101968.78;6272184;28;20486;-73
2024/01/31 07:08:59;;;;;;;32.85;18.75;;;;;;;-2.38;100.00;101964.84;6273492;28;20063;-74
2024/01/31 07:12:01;;;;;;;38.80;20.42;;;;;;;-2.26;100.00;101967.69;6273570;28;20127;-74
2024/01/31 07:15:02;;;;;;;37.03;21.05;;;;;;;-2.18;100.00;101960.19;6273660;28;20103;-74
2024/01/31 07:18:03;;;;;;;39.85;20.48;;;;;;;-2.01;100.00;101969.94;6272089;28;20482;-74
2024/01/31 07:21:04;;;;;;;37.75;20.23;;;;;;;-1.90;100.00;101968.44;6272272;28;20049;-68
2024/01/31 07:24:05;;;;;;;30.77;18.25;;;;;;;-1.77;100.00;101972.13;6273233;28;20064;-73
2024/01/31 07:27:06;;;;;;;38.13;21.55;;;;;;;-1.68;100.00;101968.06;6272977;28;20052;-73
2024/01/31 07:30:10;;;;;;;38.03;21.20;;;;;;;-1.59;100.00;101972.47;6273090;28;20488;-73
2024/01/31 07:33:11;;;;;;;50.30;25.02;;;;;;;-1.36;100.00;101962.72;6273381;28;20048;-73
2024/01/31 07:36:12;;;;;;;37.00;21.73;;;;;;;-1.22;100.00;101963.78;6271786;28;20052;-73
2024/01/31 07:39:14;;;;;;;50.08;24.38;;;;;;;-1.08;100.00;101966.59;6272894;28;20056;-68
2024/01/31 07:42:15;;;;;;;65.35;27.75;;;;;;;-0.93;100.00;101966.00;6272973;28;20052;-73
2024/01/31 07:45:16;;;;;;;57.38;26.95;;;;;;;-0.84;100.00;101971.28;6271417;28;20056;-74
2024/01/31 07:48:17;;;;;;;72.82;29.92;;;;;;;-0.68;100.00;101974.09;6272817;28;20534;-68
2024/01/31 07:51:17;;;;;;;59.05;28.98;;;;;;;-0.55;100.00;101970.06;6271328;28;20052;-73
2024/01/31 07:54:21;;;;;;;66.80;29.70;;;;;;;-0.37;100.00;101965.19;6271666;28;20045;-74
2024/01/31 07:57:21;;;;;;;45.85;23.92;;;;;;;-0.18;100.00;101968.03;6271291;28;20098;-73
2024/01/31 08:00:22;;;;;;;53.83;28.33;;;;;;;-0.04;100.00;101961.38;6272760;28;20461;-73
2024/01/31 08:03:23;;;;;;;53.90;29.13;;;;;;;0.04;100.00;101964.03;6271100;28;20088;-74
2024/01/31 08:06:24;;;;;;;62.15;28.15;;;;;;;0.24;100.00;101975.41;6270879;28;20044;-68
2024/01/31 08:09:24;;;;;;;56.92;30.85;;;;;;;0.39;100.00;101974.72;6272074;28;20191;-68
2024/01/31 08:12:26;;;;;;;45.90;27.77;;;;;;;0.52;100.00;101974.03;6270834;28;20114;-68
2024/01/31 08:15:27;;;;;;;45.75;24.42;;;;;;;0.61;100.00;101983.53;6272134;28;20131;-68
2024/01/31 08:18:28;;;;;;;39.50;21.33;;;;;;;0.75;100.00;101974.28;6271325;28;20329;-73
2024/01/31 08:21:31;;;;;;;38.47;20.45;;;;;;;0.91;100.00;101977.88;6270968;28;20495;-74
2024/01/31 08:24:32;;;;;;;70.43;29.48;;;;;;;0.98;100.00;101971.91;6272346;28;20053;-73
2024/01/31 08:27:35;;;;;;;53.25;27.75;;;;;;;1.14;100.00;101972.06;6271574;28;20056;-69
2024/01/31 08:30:36;;;;;;;44.05;21.08;;;;;;;1.31;100.00;101972.19;6270605;28;20053;-69
2024/01/31 08:33:37;;;;;;;38.85;22.10;;;;;;;1.38;100.00;101972.28;6270241;28;20048;-68
2024/01/31 08:36:40;;;;;;;49.20;22.35;;;;;;;1.30;100.00;101973.06;6270328;28;20048;-68
2024/01/31 08:39:41;;;;;;;40.40;22.70;;;;;;;1.55;100.00;101968.97;6270499;28;20056;-69
2024/01/31 08:42:42;;;;;;;37.85;20.05;;;;;;;1.39;100.00;101961.13;6270285;28;20052;-69
2024/01/31 08:45:43;;;;;;;44.83;21.20;;;;;;;1.79;100.00;101966.53;6270028;28;20106;-68
2024/01/31 08:48:44;;;;;;;37.78;20.73;;;;;;;2.03;100.00;101959.78;6271185;28;20057;-74
2024/01/31 08:51:45;;;;;;;43.53;23.63;;;;;;;2.20;100.00;101958.16;6271111;28;20056;-74
2024/01/31 08:54:48;;;;;;;44.88;22.95;;;;;;;2.45;100.00;101958.25;6271253;28;20045;-73
2024/01/31 08:57:49;;;;;;;39.88;21.02;;;;;;;2.37;100.00;101947.06;6271127;28;20241;-74
2024/01/31 09:00:49;;;;;;;34.03;18.52;;;;;;;2.56;100.00;101942.81;6269843;28;20057;-74
2024/01/31 09:03:50;;;;;;;33.90;18.20;;;;;;;2.71;100.00;101944.56;6269573;28;20481;-74
2024/01/31 09:06:53;;;;;;;37.25;17.83;;;;;;;2.79;100.00;101943.69;6269621;28;20053;-68
2024/01/31 09:09:54;;;;;;;39.25;17.98;;;;;;;2.93;100.00;101941.16;6270608;28;20049;-68
2024/01/31 09:12:55;;;;;;;30.08;16.80;;;;;;;2.73;100.00;101945.41;6270772;28;20049;-68
2024/01/31 09:15:56;;;;;;;28.23;16.15;;;;;;;2.84;100.00;101943.69;6270570;28;20093;-69
2024/01/31 09:18:56;;;;;;;35.20;16.30;;;;;;;2.63;100.00;101947.97;6269350;28;20045;-68
2024/01/31 09:21:57;;;;;;;28.13;14.93;;;;;;;2.78;100.00;101951.44;6269515;28;20045;-68
2024/01/31 09:24:58;;;;;;;27.35;14.48;;;;;;;3.06;100.00;101946.31;6269362;28;20049;-69
2024/01/31 09:28:01;;;;;;;28.15;13.55;;;;;;;3.00;100.00;101947.16;6268347;28;20053;-73
2024/01/31 09:31:02;;;;;;;27.98;13.73;;;;;;;3.11;100.00;101936.84;6270432;28;20049;-73
2024/01/31 09:34:03;;;;;;;27.27;14.18;;;;;;;3.13;100.00;101935.13;6270372;28;20045;-74
2024/01/31 09:37:04;;;;;;;27.92;13.85;;;;;;;3.55;100.00;101941.97;6270357;28;20060;-68
2024/01/31 09:40:06;;;;;;;28.92;12.65;;;;;;;3.52;100.00;101939.41;6270148;28;20057;-74
2024/01/31 09:43:07;;;;;;;25.35;14.35;;;;;;;3.70;100.00;101924.72;6270351;28;20728;-69
2024/01/31 09:46:08;;;;;;;25.75;13.10;;;;;;;3.77;100.00;101923.88;6269988;28;20049;-70
2024/01/31 09:49:08;;;;;;;24.52;12.07;;;;;;;3.89;98.69;101912.63;6269127;28;20051;-74
2024/01/31 09:52:11;;;;;;;20.33;11.73;;;;;;;4.21;97.81;101908.16;6270110;28;20134;-74
2024/01/31 09:55:12;;;;;;;19.88;10.57;;;;;;;3.75;95.76;101904.94;6270800;28;20156;-74
2024/01/31 09:58:13;;;;;;;21.30;10.65;;;;;;;3.61;98.09;101910.97;6270090;28;20049;-74
2024/01/31 10:01:20;;;;;;;18.50;10.38;;;;;;;4.02;95.77;101902.25;6269730;28;20392;-74
2024/01/31 10:04:21;;;;;;;19.52;10.50;;;;;;;4.24;95.79;101907.28;6268901;28;20045;-74
2024/01/31 10:07:28;;;;;;;16.80;9.15;;;;;;;4.02;95.97;101906.56;6268666;28;20063;-74
2024/01/31 10:10:30;;;;;;;23.75;10.73;;;;;;;4.24;95.33;101899.53;6268546;28;20631;-74
2024/01/31 10:13:30;;;;;;;17.15;9.02;;;;;;;4.62;95.06;101895.88;6268685;28;20048;-74
2024/01/31 10:16:33;;;;;;;20.25;10.95;;;;;;;4.76;93.33;101888.88;6268725;28;20408;-75
2024/01/31 10:19:34;;;;;;;19.30;10.00;;;;;;;4.81;94.19;101881.94;6269972;28;20045;-74
2024/01/31 10:22:35;;;;;;;21.83;11.20;;;;;;;4.66;93.64;101874.31;6269940;28;20128;-74
2024/01/31 10:25:36;;;;;;;16.42;9.40;;;;;;;5.25;94.35;101872.94;6268353;28;20132;-74
2024/01/31 10:28:36;;;;;;;20.83;9.70;;;;;;;5.37;91.61;101871.06;6269833;28;20488;-74
2024/01/31 10:31:39;;;;;;;21.45;10.10;;;;;;;5.35;91.33;101865.06;6268479;28;20049;-74
2024/01/31 10:34:39;;;;;;;17.98;9.88;;;;;;;4.97;92.75;101858.53;6269537;28;20510;-74
2024/01/31 10:37:40;;;;;;;20.05;10.45;;;;;;;5.27;93.66;101857.38;6269782;28;20052;-74
2024/01/31 10:40:42;;;;;;;16.35;9.48;;;;;;;5.74;90.90;101839.59;6270681;28;20187;-69
2024/01/31 10:43:44;;;;;;;21.60;12.10;;;;;;;5.75;88.74;101842.16;6273041;28;20048;-69
2024/01/31 10:46:48;;;;;;;19.90;11.45;;;;;;;5.77;90.18;101839.56;6274088;28;20063;-70
2024/01/31 10:49:48;;;;;;;24.67;11.65;;;;;;;5.70;91.22;101837.91;6273943;28;20071;-69
2024/01/31 10:52:52;;;;;;;22.10;11.85;;;;;;;5.76;90.55;101833.50;6273051;28;20484;-73
2024/01/31 10:55:56;;;;;;;20.75;11.60;;;;;;;6.07;90.75;101830.53;6273944;28;20410;-74
2024/01/31 10:58:57;;;;;;;28.92;12.52;;;;;;;5.93;89.56;101832.44;6273810;28;20049;-74
2024/01/31 11:01:58;;;;;;;19.70;10.45;;;;;;;5.86;90.13;101831.66;6273902;28;20415;-74
2024/01/31 11:05:01;;;;;;;25.63;11.35;;;;;;;6.14;90.66;101821.81;6273743;28;20059;-74
2024/01/31 11:08:01;;;;;;;24.20;12.25;;;;;;;6.20;89.85;101831.25;6273503;28;20049;-69
2024/01/31 11:11:04;;;;;;;27.35;12.57;;;;;;;6.29;89.17;101817.28;6272665;28;20479;-74
2024/01/31 11:14:14;;;;;;;22.40;11.82;;;;;;;6.25;88.86;101825.09;6272321;28;20049;-74
2024/01/31 11:17:20;;;;;;;25.02;11.55;;;;;;;6.48;88.40;101812.66;6272298;28;20080;-74
2024/01/31 11:20:22;;;;;;;23.92;11.88;;;;;;;6.14;88.26;101821.81;6273323;28;20523;-74
2024/01/31 11:23:27;;;;;;;20.52;12.57;;;;;;;6.48;87.70;101821.28;6273228;28;20457;-74
2024/01/31 11:26:33;;;;;;;19.85;11.20;;;;;;;6.62;86.52;101818.50;6272005;28;20081;-74
2024/01/31 11:29:34;;;;;;;21.77;11.55;;;;;;;6.45;86.04;101816.16;6272106;28;20056;-74
2024/01/31 11:32:35;;;;;;;32.55;15.18;;;;;;;6.12;87.37;101812.34;6273040;28;20049;-74
2024/01/31 11:35:36;;;;;;;23.33;12.05;;;;;;;6.15;86.64;101818.31;6273075;28;20049;-69
2024/01/31 11:38:38;;;;;;;26.25;13.43;;;;;;;6.33;85.16;101803.41;6271881;28;20420;-69
2024/01/31 11:41:41;;;;;;;26.55;12.50;;;;;;;6.37;86.93;101799.88;6272843;28;20056;-69
2024/01/31 11:44:42;;;;;;;23.83;12.85;;;;;;;6.63;84.72;101797.72;6271338;28;20045;-69
2024/01/31 11:47:43;;;;;;;56.30;20.75;;;;;;;6.13;84.10;101796.75;6272544;28;20487;-69
2024/01/31 11:50:44;;;;;;;20.93;11.80;;;;;;;6.36;84.83;101790.38;6272357;28;20573;-68
2024/01/31 11:53:45;;;;;;;24.60;12.55;;;;;;;6.65;83.17;101785.59;6270621;28;20049;-68
2024/01/31 11:56:47;;;;;;;30.20;15.65;;;;;;;6.80;84.55;101789.63;6271528;28;20081;-69
2024/01/31 11:59:50;;;;;;;36.55;16.58;;;;;;;6.36;88.09;101782.59;6271133;28;20059;-74
2024/01/31 12:02:54;;;;;;;32.75;14.80;;;;;;;6.60;85.97;101781.34;6271161;28;20045;-69
2024/01/31 12:05:59;;;;;;;23.17;14.00;;;;;;;6.76;86.82;101782.78;6271054;28;20071;-69
2024/01/31 12:09:00;;;;;;;25.75;13.55;;;;;;;6.58;87.70;101778.78;6270476;28;20179;-70
2024/01/31 12:12:01;;;;;;;27.63;14.13;;;;;;;6.75;87.64;101778.47;6270609;28;20085;-68
2024/01/31 12:15:04;;;;;;;25.75;14.10;;;;;;;6.59;85.90;101770.13;6272331;28;20141;-69
2024/01/31 12:18:05;;;;;;;28.95;13.48;;;;;;;6.70;86.57;101761.31;6270579;28;20132;-69
2024/01/31 12:21:09;;;;;;;20.33;12.52;;;;;;;6.58;86.83;101763.22;6270597;28;20506;-69
2024/01/31 12:24:10;;;;;;;22.95;12.65;;;;;;;6.73;86.60;101764.66;6270579;28;20488;-69
2024/01/31 12:27:12;;;;;;;23.38;12.13;;;;;;;6.86;86.32;101760.16;6270368;28;20053;-69
2024/01/31 12:30:13;;;;;;;20.92;12.13;;;;;;;6.65;84.37;101763.94;6271473;28;20418;-69
2024/01/31 12:33:14;;;;;;;22.23;11.82;;;;;;;6.63;85.73;101764.00;6270300;28;20056;-69
2024/01/31 12:36:14;;;;;;;21.58;12.52;;;;;;;6.54;84.88;101752.91;6270483;28;20456;-69
2024/01/31 12:39:20;;;;;;;20.90;11.40;;;;;;;6.10;87.57;101746.72;6271399;28;20080;-68
2024/01/31 12:42:21;;;;;;;30.23;11.25;;;;;;;6.42;87.40;101741.00;6271654;28;20080;-68
2024/01/31 12:45:21;;;;;;;20.80;11.40;;;;;;;6.17;87.10;101749.19;6270218;28;20067;-69
2024/01/31 12:48:23;;;;;;;18.00;9.45;;;;;;;6.09;88.38;101729.47;6271233;28;20144;-68
2024/01/31 12:51:23;;;;;;;21.60;11.43;;;;;;;6.21;88.85;101731.84;6269885;28;20072;-69
2024/01/31 12:54:24;;;;;;;22.70;10.93;;;;;;;6.33;88.96;101731.66;6271190;28;20475;-69
2024/01/31 12:57:25;;;;;;;21.50;11.18;;;;;;;6.47;88.62;101718.47;6271249;28;20140;-69
2024/01/31 13:00:26;;;;;;;22.13;11.23;;;;;;;6.72;87.09;101723.22;6269637;28;20052;-68
2024/01/31 13:03:26;;;;;;;19.27;11.18;;;;;;;6.23;85.58;101719.72;6270616;28;20045;-69
2024/01/31 13:06:27;;;;;;;20.85;11.07;;;;;;;6.69;85.59;101724.09;6269648;28;20131;-69
2024/01/31 13:09:28;;;;;;;19.80;11.95;;;;;;;6.72;83.97;101718.88;6270587;28;20143;-74
2024/01/31 13:12:29;;;;;;;17.48;9.32;;;;;;;6.67;82.64;101720.69;6270710;28;20052;-74
2024/01/31 13:15:30;;;;;;;14.63;8.77;;;;;;;6.62;84.05;101720.78;6270748;28;20071;-74
2024/01/31 13:18:31;;;;;;;18.25;9.52;;;;;;;6.73;84.02;101722.31;6269303;28;20654;-74
2024/01/31 13:21:32;;;;;;;22.38;11.68;;;;;;;6.25;86.19;101708.44;6270515;28;20055;-74
2024/01/31 13:24:35;;;;;;;19.13;10.35;;;;;;;6.45;84.22;101710.69;6269218;28;20132;-74
2024/01/31 13:27:36;;;;;;;17.60;9.15;;;;;;;6.45;84.20;101709.84;6270378;28;20518;-74
2024/01/31 13:30:41;;;;;;;23.80;10.50;;;;;;;6.47;84.46;101704.66;6270323;28;20053;-74
2024/01/31 13:33:43;;;;;;;19.20;10.65;;;;;;;6.55;82.61;101703.63;6270381;28;20288;-74
2024/01/31 13:36:43;;;;;;;24.75;10.90;;;;;;;6.43;83.65;101703.84;6270607;28;20085;-74
2024/01/31 13:39:46;;;;;;;19.15;10.02;;;;;;;6.25;84.78;101695.47;6270079;28;20106;-74
2024/01/31 13:42:50;;;;;;;20.27;10.52;;;;;;;6.30;84.20;101695.44;6270116;28;20503;-74